Fort Monroe, Virginia
Current Conditions -  °F | °C
As of 6:59 PM on Monday 22 Dec 2014 (Local Time) from KNGU Reporting Station
Drizzle Drizzle  
Wind Chill: 50°   Ceiling: 600
Heat Index: 50°   Visibility: 3mi
Dew Point: 46°   Wind: 14mph
Humidity: 86%   Direction: 360°N
Pressure: 30.06"   Gusts: NA
Location:  37.01°N, 76.31°W
Report Text: KNGU 222359Z 36012KT 3SM -DZ BR OVC006 10/08 A3006 RMK AO2 SLP178 P0004 60026 T01000078 10106 20083 53009
Loading
Personal Weather Stations






























Interactive Weather Map New forecast layout! Learn more

10-Day Weather Forecast

Advertisements
Track Severe Weather on mobile